sensor_id;sensor_type;location;lat;lon;timestamp;P1;durP1;ratioP1;P2;durP2;ratioP2
7239;SDS011;3661;53.288;10.458;2023-07-31T00:00:47;1717.03;;;999.90;;
7239;SDS011;3661;53.288;10.458;2023-07-31T00:03:22;1700.82;;;999.90;;
7239;SDS011;3661;53.288;10.458;2023-07-31T00:05:56;1716.38;;;999.90;;
7239;SDS011;3661;53.288;10.458;2023-07-31T00:08:42;1708.78;;;999.90;;
7239;SDS011;3661;53.288;10.458;2023-07-31T00:11:15;1714.28;;;999.90;;
7239;SDS011;3661;53.288;10.458;2023-07-31T00:13:49;1693.40;;;999.90;;
7239;SDS011;3661;53.288;10.458;2023-07-31T00:16:22;1712.18;;;999.90;;
7239;SDS011;3661;53.288;10.458;2023-07-31T00:19:03;1712.93;;;999.90;;
7239;SDS011;3661;53.288;10.458;2023-07-31T00:21:35;1716.72;;;999.90;;
7239;SDS011;3661;53.288;10.458;2023-07-31T00:24:11;1707.18;;;999.90;;
7239;SDS011;3661;53.288;10.458;2023-07-31T00:26:45;1715.20;;;999.90;;
7239;SDS011;3661;53.288;10.458;2023-07-31T00:29:22;1718.10;;;999.90;;
7239;SDS011;3661;53.288;10.458;2023-07-31T00:31:56;1705.00;;;999.90;;
7239;SDS011;3661;53.288;10.458;2023-07-31T00:34:35;1722.82;;;999.90;;
7239;SDS011;3661;53.288;10.458;2023-07-31T00:37:11;1706.60;;;999.90;;
7239;SDS011;3661;53.288;10.458;2023-07-31T00:39:46;1714.45;;;999.90;;
7239;SDS011;3661;53.288;10.458;2023-07-31T00:42:19;1720.22;;;999.90;;
7239;SDS011;3661;53.288;10.458;2023-07-31T00:44:51;1737.30;;;999.90;;
7239;SDS011;3661;53.288;10.458;2023-07-31T00:47:23;1716.53;;;999.90;;
7239;SDS011;3661;53.288;10.458;2023-07-31T00:49:57;1721.78;;;999.90;;
7239;SDS011;3661;53.288;10.458;2023-07-31T00:52:31;1728.13;;;999.90;;
7239;SDS011;3661;53.288;10.458;2023-07-31T00:55:03;1707.33;;;999.90;;
7239;SDS011;3661;53.288;10.458;2023-07-31T00:57:36;1725.03;;;999.90;;
7239;SDS011;3661;53.288;10.458;2023-07-31T01:00:10;1713.05;;;999.90;;
7239;SDS011;3661;53.288;10.458;2023-07-31T01:02:43;1734.28;;;999.90;;
7239;SDS011;3661;53.288;10.458;2023-07-31T01:05:17;1724.35;;;999.90;;
7239;SDS011;3661;53.288;10.458;2023-07-31T01:07:59;1723.93;;;999.90;;
7239;SDS011;3661;53.288;10.458;2023-07-31T01:10:41;1732.05;;;999.90;;
7239;SDS011;3661;53.288;10.458;2023-07-31T01:13:18;1714.80;;;999.90;;
7239;SDS011;3661;53.288;10.458;2023-07-31T01:15:50;1710.60;;;999.90;;
7239;SDS011;3661;53.288;10.458;2023-07-31T01:18:22;1705.93;;;999.90;;
7239;SDS011;3661;53.288;10.458;2023-07-31T01:21:03;1710.75;;;999.90;;
7239;SDS011;3661;53.288;10.458;2023-07-31T01:23:51;1720.70;;;999.90;;
7239;SDS011;3661;53.288;10.458;2023-07-31T01:26:45;1710.97;;;999.90;;
7239;SDS011;3661;53.288;10.458;2023-07-31T01:29:21;1725.05;;;999.90;;
7239;SDS011;3661;53.288;10.458;2023-07-31T01:32:01;1723.10;;;999.90;;
7239;SDS011;3661;53.288;10.458;2023-07-31T01:34:33;1734.68;;;999.90;;
7239;SDS011;3661;53.288;10.458;2023-07-31T01:37:08;1713.45;;;999.90;;
7239;SDS011;3661;53.288;10.458;2023-07-31T01:39:40;1715.03;;;999.90;;
7239;SDS011;3661;53.288;10.458;2023-07-31T01:42:14;1720.80;;;999.90;;
7239;SDS011;3661;53.288;10.458;2023-07-31T01:44:46;1721.43;;;999.90;;
7239;SDS011;3661;53.288;10.458;2023-07-31T01:47:18;1728.95;;;999.90;;
7239;SDS011;3661;53.288;10.458;2023-07-31T01:49:50;1735.40;;;999.90;;
7239;SDS011;3661;53.288;10.458;2023-07-31T01:52:23;1720.40;;;999.90;;
7239;SDS011;3661;53.288;10.458;2023-07-31T01:54:55;1724.00;;;999.90;;
7239;SDS011;3661;53.288;10.458;2023-07-31T01:57:29;1722.18;;;999.90;;
7239;SDS011;3661;53.288;10.458;2023-07-31T02:00:05;1730.05;;;999.90;;
7239;SDS011;3661;53.288;10.458;2023-07-31T02:02:39;1728.65;;;999.90;;
7239;SDS011;3661;53.288;10.458;2023-07-31T02:05:11;1725.25;;;999.90;;
7239;SDS011;3661;53.288;10.458;2023-07-31T02:07:45;1736.87;;;999.90;;
7239;SDS011;3661;53.288;10.458;2023-07-31T02:10:18;1711.70;;;999.90;;
7239;SDS011;3661;53.288;10.458;2023-07-31T02:12:52;1741.55;;;999.90;;
7239;SDS011;3661;53.288;10.458;2023-07-31T02:15:24;1728.28;;;999.90;;
7239;SDS011;3661;53.288;10.458;2023-07-31T02:17:56;1738.15;;;999.90;;
7239;SDS011;3661;53.288;10.458;2023-07-31T02:20:29;1726.50;;;999.90;;
7239;SDS011;3661;53.288;10.458;2023-07-31T02:23:01;1733.70;;;999.90;;
7239;SDS011;3661;53.288;10.458;2023-07-31T02:25:35;1735.75;;;999.90;;
7239;SDS011;3661;53.288;10.458;2023-07-31T02:28:10;1715.25;;;999.90;;
7239;SDS011;3661;53.288;10.458;2023-07-31T02:30:44;1727.55;;;999.90;;
7239;SDS011;3661;53.288;10.458;2023-07-31T02:33:16;1739.90;;;999.90;;
7239;SDS011;3661;53.288;10.458;2023-07-31T02:35:49;1715.60;;;999.90;;
7239;SDS011;3661;53.288;10.458;2023-07-31T02:38:21;1738.80;;;999.90;;
7239;SDS011;3661;53.288;10.458;2023-07-31T02:40:57;1739.20;;;999.90;;
7239;SDS011;3661;53.288;10.458;2023-07-31T02:43:34;1722.40;;;999.90;;
7239;SDS011;3661;53.288;10.458;2023-07-31T02:46:07;1727.28;;;999.90;;
7239;SDS011;3661;53.288;10.458;2023-07-31T02:48:42;1734.50;;;999.90;;
7239;SDS011;3661;53.288;10.458;2023-07-31T02:51:14;1737.18;;;999.90;;
7239;SDS011;3661;53.288;10.458;2023-07-31T02:53:46;1744.22;;;999.90;;
7239;SDS011;3661;53.288;10.458;2023-07-31T02:56:19;1714.57;;;999.90;;
7239;SDS011;3661;53.288;10.458;2023-07-31T02:58:55;1710.57;;;999.90;;
7239;SDS011;3661;53.288;10.458;2023-07-31T03:01:29;1707.90;;;999.90;;
7239;SDS011;3661;53.288;10.458;2023-07-31T03:04:02;1732.37;;;999.90;;
7239;SDS011;3661;53.288;10.458;2023-07-31T03:06:35;1715.68;;;999.90;;
7239;SDS011;3661;53.288;10.458;2023-07-31T03:09:08;1728.72;;;999.90;;
7239;SDS011;3661;53.288;10.458;2023-07-31T03:11:41;1718.63;;;999.90;;
7239;SDS011;3661;53.288;10.458;2023-07-31T03:14:15;1699.80;;;999.90;;
7239;SDS011;3661;53.288;10.458;2023-07-31T03:16:47;1717.93;;;999.90;;
7239;SDS011;3661;53.288;10.458;2023-07-31T03:19:19;1730.35;;;999.90;;
7239;SDS011;3661;53.288;10.458;2023-07-31T03:21:52;1731.82;;;999.90;;
7239;SDS011;3661;53.288;10.458;2023-07-31T03:24:25;1732.63;;;999.90;;
7239;SDS011;3661;53.288;10.458;2023-07-31T03:27:05;1722.35;;;999.90;;
7239;SDS011;3661;53.288;10.458;2023-07-31T03:29:39;1736.57;;;999.90;;
7239;SDS011;3661;53.288;10.458;2023-07-31T03:32:11;1724.43;;;999.90;;
7239;SDS011;3661;53.288;10.458;2023-07-31T03:34:46;1729.63;;;999.90;;
7239;SDS011;3661;53.288;10.458;2023-07-31T03:37:18;1709.57;;;999.90;;
7239;SDS011;3661;53.288;10.458;2023-07-31T03:39:50;1731.50;;;999.90;;
7239;SDS011;3661;53.288;10.458;2023-07-31T03:42:22;1741.67;;;999.90;;
7239;SDS011;3661;53.288;10.458;2023-07-31T03:44:59;1714.25;;;999.90;;
7239;SDS011;3661;53.288;10.458;2023-07-31T03:47:31;1740.15;;;999.90;;
7239;SDS011;3661;53.288;10.458;2023-07-31T03:50:03;1725.55;;;999.90;;
7239;SDS011;3661;53.288;10.458;2023-07-31T03:52:36;1734.75;;;999.90;;
7239;SDS011;3661;53.288;10.458;2023-07-31T03:55:09;1735.03;;;999.90;;
7239;SDS011;3661;53.288;10.458;2023-07-31T03:57:41;1730.28;;;999.90;;
7239;SDS011;3661;53.288;10.458;2023-07-31T04:00:14;1736.10;;;999.90;;
7239;SDS011;3661;53.288;10.458;2023-07-31T04:02:48;1743.25;;;999.90;;
7239;SDS011;3661;53.288;10.458;2023-07-31T04:05:23;1737.72;;;999.90;;
7239;SDS011;3661;53.288;10.458;2023-07-31T04:07:55;1759.97;;;999.90;;
7239;SDS011;3661;53.288;10.458;2023-07-31T04:10:29;1738.45;;;999.90;;
7239;SDS011;3661;53.288;10.458;2023-07-31T04:13:03;1763.85;;;999.90;;
7239;SDS011;3661;53.288;10.458;2023-07-31T04:15:37;1737.10;;;999.90;;
7239;SDS011;3661;53.288;10.458;2023-07-31T04:18:09;1751.30;;;999.90;;
7239;SDS011;3661;53.288;10.458;2023-07-31T04:20:41;1757.22;;;999.90;;
7239;SDS011;3661;53.288;10.458;2023-07-31T04:23:14;1739.45;;;999.90;;
7239;SDS011;3661;53.288;10.458;2023-07-31T04:25:46;1762.03;;;999.90;;
7239;SDS011;3661;53.288;10.458;2023-07-31T04:28:18;1741.38;;;999.90;;
7239;SDS011;3661;53.288;10.458;2023-07-31T04:30:52;1741.70;;;999.90;;
7239;SDS011;3661;53.288;10.458;2023-07-31T04:33:27;1752.78;;;999.90;;
7239;SDS011;3661;53.288;10.458;2023-07-31T04:35:59;1739.20;;;999.90;;
7239;SDS011;3661;53.288;10.458;2023-07-31T04:38:31;1737.85;;;999.90;;
7239;SDS011;3661;53.288;10.458;2023-07-31T04:41:03;1722.65;;;999.90;;
7239;SDS011;3661;53.288;10.458;2023-07-31T04:43:36;1736.65;;;999.90;;
7239;SDS011;3661;53.288;10.458;2023-07-31T04:46:13;1748.90;;;999.90;;
7239;SDS011;3661;53.288;10.458;2023-07-31T04:48:46;1741.88;;;999.90;;
7239;SDS011;3661;53.288;10.458;2023-07-31T04:51:18;1747.13;;;999.90;;
7239;SDS011;3661;53.288;10.458;2023-07-31T04:53:51;1761.22;;;999.90;;
7239;SDS011;3661;53.288;10.458;2023-07-31T04:56:23;1743.40;;;999.90;;
7239;SDS011;3661;53.288;10.458;2023-07-31T04:58:55;1756.65;;;999.90;;
7239;SDS011;3661;53.288;10.458;2023-07-31T05:01:32;1758.60;;;999.90;;
7239;SDS011;3661;53.288;10.458;2023-07-31T05:04:04;1755.82;;;999.90;;
7239;SDS011;3661;53.288;10.458;2023-07-31T05:06:37;1773.82;;;999.90;;
7239;SDS011;3661;53.288;10.458;2023-07-31T05:09:09;1768.20;;;999.90;;
7239;SDS011;3661;53.288;10.458;2023-07-31T05:11:42;1739.67;;;999.90;;
7239;SDS011;3661;53.288;10.458;2023-07-31T05:14:16;1775.32;;;999.90;;
7239;SDS011;3661;53.288;10.458;2023-07-31T05:16:50;1747.75;;;999.90;;
7239;SDS011;3661;53.288;10.458;2023-07-31T05:19:22;1745.65;;;999.90;;
7239;SDS011;3661;53.288;10.458;2023-07-31T05:21:54;1753.68;;;999.90;;
7239;SDS011;3661;53.288;10.458;2023-07-31T05:24:26;1746.00;;;999.90;;
7239;SDS011;3661;53.288;10.458;2023-07-31T05:26:58;1744.85;;;999.90;;
7239;SDS011;3661;53.288;10.458;2023-07-31T05:29:30;1773.07;;;999.90;;
7239;SDS011;3661;53.288;10.458;2023-07-31T05:32:05;1764.47;;;999.90;;
7239;SDS011;3661;53.288;10.458;2023-07-31T05:34:39;1744.65;;;999.90;;
7239;SDS011;3661;53.288;10.458;2023-07-31T05:37:12;1769.25;;;999.90;;
7239;SDS011;3661;53.288;10.458;2023-07-31T05:39:44;1761.03;;;999.90;;
7239;SDS011;3661;53.288;10.458;2023-07-31T05:42:16;1756.05;;;999.90;;
7239;SDS011;3661;53.288;10.458;2023-07-31T05:44:48;1770.83;;;999.90;;
7239;SDS011;3661;53.288;10.458;2023-07-31T05:47:22;1781.00;;;999.90;;
7239;SDS011;3661;53.288;10.458;2023-07-31T05:49:54;1780.20;;;999.90;;
7239;SDS011;3661;53.288;10.458;2023-07-31T05:52:27;1762.25;;;999.90;;
7239;SDS011;3661;53.288;10.458;2023-07-31T05:55:00;1771.78;;;999.90;;
7239;SDS011;3661;53.288;10.458;2023-07-31T05:57:33;1772.03;;;999.90;;
7239;SDS011;3661;53.288;10.458;2023-07-31T06:00:07;1807.53;;;999.90;;
7239;SDS011;3661;53.288;10.458;2023-07-31T06:02:42;1771.43;;;999.90;;
7239;SDS011;3661;53.288;10.458;2023-07-31T06:05:15;1738.63;;;999.90;;
7239;SDS011;3661;53.288;10.458;2023-07-31T06:07:47;1771.15;;;999.90;;
7239;SDS011;3661;53.288;10.458;2023-07-31T06:10:19;1767.57;;;999.90;;
7239;SDS011;3661;53.288;10.458;2023-07-31T06:12:52;1778.50;;;999.90;;
7239;SDS011;3661;53.288;10.458;2023-07-31T06:15:25;1792.85;;;999.90;;
7239;SDS011;3661;53.288;10.458;2023-07-31T06:17:59;1775.68;;;999.90;;
7239;SDS011;3661;53.288;10.458;2023-07-31T06:20:32;1798.35;;;999.90;;
7239;SDS011;3661;53.288;10.458;2023-07-31T06:23:05;1776.30;;;999.90;;
7239;SDS011;3661;53.288;10.458;2023-07-31T06:25:37;1797.80;;;999.90;;
7239;SDS011;3661;53.288;10.458;2023-07-31T06:28:09;1804.93;;;999.90;;
7239;SDS011;3661;53.288;10.458;2023-07-31T06:30:42;1819.53;;;999.90;;
7239;SDS011;3661;53.288;10.458;2023-07-31T06:33:16;1798.72;;;999.90;;
7239;SDS011;3661;53.288;10.458;2023-07-31T06:35:50;1811.95;;;999.90;;
7239;SDS011;3661;53.288;10.458;2023-07-31T06:38:24;1811.97;;;999.90;;
7239;SDS011;3661;53.288;10.458;2023-07-31T06:40:57;1809.90;;;999.90;;
7239;SDS011;3661;53.288;10.458;2023-07-31T06:43:30;1788.32;;;999.90;;
7239;SDS011;3661;53.288;10.458;2023-07-31T06:46:04;1804.25;;;999.90;;
7239;SDS011;3661;53.288;10.458;2023-07-31T06:48:38;1810.05;;;999.90;;
7239;SDS011;3661;53.288;10.458;2023-07-31T06:51:11;1805.47;;;999.90;;
7239;SDS011;3661;53.288;10.458;2023-07-31T06:53:45;1806.55;;;999.90;;
7239;SDS011;3661;53.288;10.458;2023-07-31T06:56:17;1798.20;;;999.90;;
7239;SDS011;3661;53.288;10.458;2023-07-31T06:58:49;1806.43;;;999.90;;
7239;SDS011;3661;53.288;10.458;2023-07-31T07:01:22;1826.72;;;999.90;;
7239;SDS011;3661;53.288;10.458;2023-07-31T07:03:56;1822.20;;;999.90;;
7239;SDS011;3661;53.288;10.458;2023-07-31T07:06:28;1816.50;;;999.90;;
7239;SDS011;3661;53.288;10.458;2023-07-31T07:09:01;1840.60;;;999.90;;
7239;SDS011;3661;53.288;10.458;2023-07-31T07:11:34;1817.70;;;999.90;;
7239;SDS011;3661;53.288;10.458;2023-07-31T07:14:07;1821.45;;;999.90;;
7239;SDS011;3661;53.288;10.458;2023-07-31T07:16:40;1836.13;;;999.90;;
7239;SDS011;3661;53.288;10.458;2023-07-31T07:19:25;1824.68;;;999.90;;
7239;SDS011;3661;53.288;10.458;2023-07-31T07:21:58;1821.32;;;999.90;;
7239;SDS011;3661;53.288;10.458;2023-07-31T07:24:33;1849.22;;;999.90;;
7239;SDS011;3661;53.288;10.458;2023-07-31T07:33:48;1833.63;;;999.90;;
7239;SDS011;3661;53.288;10.458;2023-07-31T07:36:22;1863.38;;;999.90;;
7239;SDS011;3661;53.288;10.458;2023-07-31T07:38:56;1836.15;;;999.90;;
7239;SDS011;3661;53.288;10.458;2023-07-31T07:41:29;1853.67;;;999.90;;
7239;SDS011;3661;53.288;10.458;2023-07-31T07:44:01;1852.97;;;999.90;;
7239;SDS011;3661;53.288;10.458;2023-07-31T07:46:33;1839.60;;;999.90;;
7239;SDS011;3661;53.288;10.458;2023-07-31T07:49:05;1847.45;;;999.90;;
7239;SDS011;3661;53.288;10.458;2023-07-31T07:51:39;1839.33;;;999.90;;
7239;SDS011;3661;53.288;10.458;2023-07-31T07:54:12;1859.77;;;999.90;;
7239;SDS011;3661;53.288;10.458;2023-07-31T07:56:44;1858.03;;;999.90;;
7239;SDS011;3661;53.288;10.458;2023-07-31T07:59:16;1858.70;;;999.90;;
7239;SDS011;3661;53.288;10.458;2023-07-31T08:01:51;1876.30;;;999.90;;
7239;SDS011;3661;53.288;10.458;2023-07-31T08:04:28;1859.55;;;999.90;;
7239;SDS011;3661;53.288;10.458;2023-07-31T08:07:02;1876.32;;;999.90;;
7239;SDS011;3661;53.288;10.458;2023-07-31T08:09:36;1873.72;;;999.90;;
7239;SDS011;3661;53.288;10.458;2023-07-31T08:12:08;1860.80;;;999.90;;
7239;SDS011;3661;53.288;10.458;2023-07-31T08:14:41;1859.50;;;999.90;;
7239;SDS011;3661;53.288;10.458;2023-07-31T08:17:13;1875.03;;;999.90;;
7239;SDS011;3661;53.288;10.458;2023-07-31T08:19:45;1887.40;;;999.90;;
7239;SDS011;3661;53.288;10.458;2023-07-31T08:22:18;1874.78;;;999.90;;
7239;SDS011;3661;53.288;10.458;2023-07-31T08:24:53;1870.10;;;999.90;;
7239;SDS011;3661;53.288;10.458;2023-07-31T08:27:25;1881.63;;;999.90;;
7239;SDS011;3661;53.288;10.458;2023-07-31T08:30:00;1903.97;;;999.90;;
7239;SDS011;3661;53.288;10.458;2023-07-31T08:32:33;1891.95;;;999.90;;
7239;SDS011;3661;53.288;10.458;2023-07-31T08:35:07;1889.75;;;999.90;;
7239;SDS011;3661;53.288;10.458;2023-07-31T08:40:22;1881.82;;;999.90;;
7239;SDS011;3661;53.288;10.458;2023-07-31T08:42:56;1896.53;;;999.90;;
7239;SDS011;3661;53.288;10.458;2023-07-31T08:45:32;1880.57;;;999.90;;
7239;SDS011;3661;53.288;10.458;2023-07-31T08:48:05;1872.75;;;999.90;;
7239;SDS011;3661;53.288;10.458;2023-07-31T08:50:45;1883.75;;;999.90;;
7239;SDS011;3661;53.288;10.458;2023-07-31T08:53:17;1899.63;;;999.90;;
7239;SDS011;3661;53.288;10.458;2023-07-31T08:55:51;1887.05;;;999.90;;
7239;SDS011;3661;53.288;10.458;2023-07-31T08:58:25;1882.57;;;999.90;;
7239;SDS011;3661;53.288;10.458;2023-07-31T09:00:59;1873.95;;;999.90;;
7239;SDS011;3661;53.288;10.458;2023-07-31T09:03:35;1871.47;;;999.90;;
7239;SDS011;3661;53.288;10.458;2023-07-31T09:09:00;1885.33;;;999.90;;
7239;SDS011;3661;53.288;10.458;2023-07-31T09:11:34;1884.30;;;999.90;;
7239;SDS011;3661;53.288;10.458;2023-07-31T09:14:07;1887.25;;;999.90;;
7239;SDS011;3661;53.288;10.458;2023-07-31T09:16:51;1903.50;;;999.90;;
7239;SDS011;3661;53.288;10.458;2023-07-31T09:19:25;1875.85;;;999.90;;
7239;SDS011;3661;53.288;10.458;2023-07-31T09:21:58;1895.87;;;999.90;;
7239;SDS011;3661;53.288;10.458;2023-07-31T09:24:30;1893.22;;;999.90;;
7239;SDS011;3661;53.288;10.458;2023-07-31T09:27:06;1899.82;;;999.90;;
7239;SDS011;3661;53.288;10.458;2023-07-31T09:29:38;1882.22;;;999.90;;
7239;SDS011;3661;53.288;10.458;2023-07-31T09:32:15;1904.03;;;999.90;;
7239;SDS011;3661;53.288;10.458;2023-07-31T09:34:48;1895.70;;;999.90;;
7239;SDS011;3661;53.288;10.458;2023-07-31T09:37:20;1892.40;;;999.90;;
7239;SDS011;3661;53.288;10.458;2023-07-31T09:39:55;1890.75;;;999.90;;
7239;SDS011;3661;53.288;10.458;2023-07-31T09:42:30;1899.10;;;999.90;;
7239;SDS011;3661;53.288;10.458;2023-07-31T09:45:07;1892.55;;;999.90;;
7239;SDS011;3661;53.288;10.458;2023-07-31T09:47:44;1896.40;;;999.90;;
7239;SDS011;3661;53.288;10.458;2023-07-31T09:50:19;1880.45;;;999.90;;
7239;SDS011;3661;53.288;10.458;2023-07-31T09:52:54;1905.40;;;999.90;;
7239;SDS011;3661;53.288;10.458;2023-07-31T09:55:27;1921.15;;;999.90;;
7239;SDS011;3661;53.288;10.458;2023-07-31T09:58:04;1907.30;;;999.90;;
7239;SDS011;3661;53.288;10.458;2023-07-31T10:00:38;1905.53;;;999.90;;
7239;SDS011;3661;53.288;10.458;2023-07-31T10:03:10;1928.47;;;999.90;;
7239;SDS011;3661;53.288;10.458;2023-07-31T10:05:45;1914.00;;;999.90;;
7239;SDS011;3661;53.288;10.458;2023-07-31T10:08:21;1914.55;;;999.90;;
7239;SDS011;3661;53.288;10.458;2023-07-31T10:10:59;1921.30;;;999.90;;
7239;SDS011;3661;53.288;10.458;2023-07-31T10:13:38;1904.67;;;999.90;;
7239;SDS011;3661;53.288;10.458;2023-07-31T10:16:13;1926.70;;;999.90;;
7239;SDS011;3661;53.288;10.458;2023-07-31T10:18:47;1917.40;;;999.90;;
7239;SDS011;3661;53.288;10.458;2023-07-31T10:21:21;1921.72;;;999.90;;
7239;SDS011;3661;53.288;10.458;2023-07-31T10:23:54;1906.15;;;999.90;;
7239;SDS011;3661;53.288;10.458;2023-07-31T10:26:27;1913.32;;;999.90;;
7239;SDS011;3661;53.288;10.458;2023-07-31T10:29:02;1927.72;;;999.90;;
7239;SDS011;3661;53.288;10.458;2023-07-31T10:31:35;1904.75;;;999.90;;
7239;SDS011;3661;53.288;10.458;2023-07-31T10:34:07;1918.55;;;999.90;;
7239;SDS011;3661;53.288;10.458;2023-07-31T10:36:40;1920.22;;;999.90;;
7239;SDS011;3661;53.288;10.458;2023-07-31T10:42:09;1927.65;;;999.90;;
7239;SDS011;3661;53.288;10.458;2023-07-31T10:44:46;1913.95;;;999.90;;
7239;SDS011;3661;53.288;10.458;2023-07-31T10:47:22;1923.83;;;999.90;;
7239;SDS011;3661;53.288;10.458;2023-07-31T10:53:04;1946.07;;;999.90;;
7239;SDS011;3661;53.288;10.458;2023-07-31T10:55:42;1930.25;;;999.90;;
7239;SDS011;3661;53.288;10.458;2023-07-31T10:58:17;1921.13;;;999.90;;
7239;SDS011;3661;53.288;10.458;2023-07-31T11:04:07;1943.55;;;999.90;;
7239;SDS011;3661;53.288;10.458;2023-07-31T11:07:00;1948.30;;;999.90;;
7239;SDS011;3661;53.288;10.458;2023-07-31T11:09:36;1948.45;;;999.90;;
7239;SDS011;3661;53.288;10.458;2023-07-31T11:12:08;1938.28;;;999.90;;
7239;SDS011;3661;53.288;10.458;2023-07-31T11:14:41;1934.43;;;999.90;;
7239;SDS011;3661;53.288;10.458;2023-07-31T11:17:14;1934.57;;;999.90;;
7239;SDS011;3661;53.288;10.458;2023-07-31T11:19:47;1955.47;;;999.90;;
7239;SDS011;3661;53.288;10.458;2023-07-31T11:22:22;1931.45;;;999.90;;
7239;SDS011;3661;53.288;10.458;2023-07-31T11:24:54;1954.05;;;999.90;;
7239;SDS011;3661;53.288;10.458;2023-07-31T11:27:28;1932.72;;;999.90;;
7239;SDS011;3661;53.288;10.458;2023-07-31T11:30:00;1960.97;;;999.90;;
7239;SDS011;3661;53.288;10.458;2023-07-31T11:32:33;1967.40;;;999.90;;
7239;SDS011;3661;53.288;10.458;2023-07-31T11:35:06;1948.07;;;999.90;;
7239;SDS011;3661;53.288;10.458;2023-07-31T11:37:43;1941.25;;;999.90;;
7239;SDS011;3661;53.288;10.458;2023-07-31T11:40:16;1981.03;;;999.90;;
7239;SDS011;3661;53.288;10.458;2023-07-31T11:42:48;1960.57;;;999.90;;
7239;SDS011;3661;53.288;10.458;2023-07-31T11:45:20;1968.53;;;999.90;;
7239;SDS011;3661;53.288;10.458;2023-07-31T11:47:53;1963.90;;;999.90;;
7239;SDS011;3661;53.288;10.458;2023-07-31T11:50:30;1962.27;;;999.90;;
7239;SDS011;3661;53.288;10.458;2023-07-31T11:53:07;1966.25;;;999.90;;
7239;SDS011;3661;53.288;10.458;2023-07-31T11:55:40;1963.53;;;999.90;;
7239;SDS011;3661;53.288;10.458;2023-07-31T11:58:13;1967.70;;;999.90;;
7239;SDS011;3661;53.288;10.458;2023-07-31T12:00:46;1966.32;;;999.90;;
7239;SDS011;3661;53.288;10.458;2023-07-31T12:03:19;1982.05;;;999.90;;
7239;SDS011;3661;53.288;10.458;2023-07-31T12:05:54;1966.43;;;999.90;;
7239;SDS011;3661;53.288;10.458;2023-07-31T12:08:26;1989.00;;;999.90;;
7239;SDS011;3661;53.288;10.458;2023-07-31T12:11:02;1988.95;;;999.90;;
7239;SDS011;3661;53.288;10.458;2023-07-31T12:13:35;1971.03;;;999.90;;
7239;SDS011;3661;53.288;10.458;2023-07-31T12:16:09;1984.90;;;999.90;;
7239;SDS011;3661;53.288;10.458;2023-07-31T12:18:44;1979.57;;;999.90;;
7239;SDS011;3661;53.288;10.458;2023-07-31T12:21:18;1975.63;;;999.90;;
7239;SDS011;3661;53.288;10.458;2023-07-31T12:23:54;1962.68;;;999.90;;
7239;SDS011;3661;53.288;10.458;2023-07-31T12:26:33;1979.85;;;999.90;;
7239;SDS011;3661;53.288;10.458;2023-07-31T12:29:07;1978.65;;;999.90;;
7239;SDS011;3661;53.288;10.458;2023-07-31T12:31:40;1970.28;;;999.90;;
7239;SDS011;3661;53.288;10.458;2023-07-31T12:34:15;1974.55;;;999.90;;
7239;SDS011;3661;53.288;10.458;2023-07-31T12:36:52;1965.32;;;999.90;;
7239;SDS011;3661;53.288;10.458;2023-07-31T12:39:37;1969.13;;;999.90;;
7239;SDS011;3661;53.288;10.458;2023-07-31T12:42:19;1980.07;;;999.90;;
7239;SDS011;3661;53.288;10.458;2023-07-31T12:44:58;1987.55;;;999.90;;
7239;SDS011;3661;53.288;10.458;2023-07-31T12:47:41;1993.38;;;999.90;;
7239;SDS011;3661;53.288;10.458;2023-07-31T12:50:13;1969.20;;;999.90;;
7239;SDS011;3661;53.288;10.458;2023-07-31T12:52:47;1990.67;;;999.90;;
7239;SDS011;3661;53.288;10.458;2023-07-31T12:55:20;1967.55;;;999.90;;
7239;SDS011;3661;53.288;10.458;2023-07-31T12:57:52;1992.03;;;999.90;;
7239;SDS011;3661;53.288;10.458;2023-07-31T13:00:25;1981.75;;;999.90;;
7239;SDS011;3661;53.288;10.458;2023-07-31T13:02:57;1982.93;;;999.90;;
7239;SDS011;3661;53.288;10.458;2023-07-31T13:05:30;1971.20;;;999.90;;
7239;SDS011;3661;53.288;10.458;2023-07-31T13:08:03;1975.75;;;999.90;;
7239;SDS011;3661;53.288;10.458;2023-07-31T13:10:36;1973.72;;;999.90;;
7239;SDS011;3661;53.288;10.458;2023-07-31T13:13:08;1959.28;;;999.90;;
7239;SDS011;3661;53.288;10.458;2023-07-31T13:15:41;1973.35;;;999.90;;
7239;SDS011;3661;53.288;10.458;2023-07-31T13:18:14;1963.50;;;999.90;;
7239;SDS011;3661;53.288;10.458;2023-07-31T13:20:47;1974.30;;;999.90;;
7239;SDS011;3661;53.288;10.458;2023-07-31T13:23:21;1984.53;;;999.90;;
7239;SDS011;3661;53.288;10.458;2023-07-31T13:25:54;1991.18;;;999.90;;
7239;SDS011;3661;53.288;10.458;2023-07-31T13:28:26;1963.22;;;999.90;;
7239;SDS011;3661;53.288;10.458;2023-07-31T13:30:58;1969.57;;;999.90;;
7239;SDS011;3661;53.288;10.458;2023-07-31T13:33:36;1993.75;;;999.90;;
7239;SDS011;3661;53.288;10.458;2023-07-31T13:36:08;1995.20;;;999.90;;
7239;SDS011;3661;53.288;10.458;2023-07-31T13:38:46;1972.55;;;999.90;;
7239;SDS011;3661;53.288;10.458;2023-07-31T13:41:24;1980.63;;;999.90;;
7239;SDS011;3661;53.288;10.458;2023-07-31T13:43:56;1969.53;;;999.90;;
7239;SDS011;3661;53.288;10.458;2023-07-31T13:46:31;1974.65;;;999.90;;
7239;SDS011;3661;53.288;10.458;2023-07-31T13:49:03;1960.25;;;999.90;;
7239;SDS011;3661;53.288;10.458;2023-07-31T13:51:36;1973.03;;;999.90;;
7239;SDS011;3661;53.288;10.458;2023-07-31T13:54:11;1963.83;;;999.90;;
7239;SDS011;3661;53.288;10.458;2023-07-31T13:56:43;1964.32;;;999.90;;
7239;SDS011;3661;53.288;10.458;2023-07-31T13:59:15;1985.33;;;999.90;;
7239;SDS011;3661;53.288;10.458;2023-07-31T14:01:48;1955.18;;;999.90;;
7239;SDS011;3661;53.288;10.458;2023-07-31T14:04:21;1962.82;;;999.90;;
7239;SDS011;3661;53.288;10.458;2023-07-31T14:06:53;1986.88;;;999.90;;
7239;SDS011;3661;53.288;10.458;2023-07-31T14:09:28;1987.97;;;999.90;;
7239;SDS011;3661;53.288;10.458;2023-07-31T14:12:00;1962.43;;;999.90;;
7239;SDS011;3661;53.288;10.458;2023-07-31T14:14:32;1959.43;;;999.90;;
7239;SDS011;3661;53.288;10.458;2023-07-31T14:17:05;1967.15;;;999.90;;
7239;SDS011;3661;53.288;10.458;2023-07-31T14:19:37;1963.55;;;999.90;;
7239;SDS011;3661;53.288;10.458;2023-07-31T14:22:09;1968.80;;;999.90;;
7239;SDS011;3661;53.288;10.458;2023-07-31T14:24:43;1975.38;;;999.90;;
7239;SDS011;3661;53.288;10.458;2023-07-31T14:27:15;1975.82;;;999.90;;
7239;SDS011;3661;53.288;10.458;2023-07-31T14:29:47;1981.60;;;999.90;;
7239;SDS011;3661;53.288;10.458;2023-07-31T14:32:20;1999.80;;;999.90;;
7239;SDS011;3661;53.288;10.458;2023-07-31T14:34:53;1963.65;;;999.90;;
7239;SDS011;3661;53.288;10.458;2023-07-31T14:37:26;1969.63;;;999.90;;
7239;SDS011;3661;53.288;10.458;2023-07-31T14:40:09;1962.82;;;999.90;;
7239;SDS011;3661;53.288;10.458;2023-07-31T14:42:43;1966.35;;;999.90;;
7239;SDS011;3661;53.288;10.458;2023-07-31T14:45:17;1979.63;;;999.90;;
7239;SDS011;3661;53.288;10.458;2023-07-31T14:47:49;1982.10;;;999.90;;
7239;SDS011;3661;53.288;10.458;2023-07-31T14:50:21;1966.25;;;999.90;;
7239;SDS011;3661;53.288;10.458;2023-07-31T14:52:53;1968.18;;;999.90;;
7239;SDS011;3661;53.288;10.458;2023-07-31T14:55:27;1954.43;;;999.90;;